createdAt,value
2022-10-31T00:02:53.843Z,67.20
2022-10-31T00:05:55.748Z,74.57
2022-10-31T00:09:02.337Z,73.30
2022-10-31T00:12:04.679Z,73.00
2022-10-31T00:15:06.995Z,83.23
2022-10-31T00:18:10.905Z,102.97
2022-10-31T00:21:12.975Z,112.63
2022-10-31T00:24:14.991Z,97.67
2022-10-31T00:27:17.097Z,86.60
2022-10-31T00:30:19.112Z,84.47
2022-10-31T00:33:21.249Z,83.90
2022-10-31T00:36:23.177Z,90.93
2022-10-31T00:39:25.244Z,89.63
2022-10-31T00:42:27.140Z,85.40
2022-10-31T00:45:29.252Z,74.53
2022-10-31T00:48:31.816Z,79.47
2022-10-31T00:51:33.940Z,75.13
2022-10-31T00:54:35.977Z,73.47
2022-10-31T00:57:38.057Z,68.40
2022-10-31T01:00:40.466Z,89.97
2022-10-31T01:03:42.574Z,94.40
2022-10-31T01:06:44.516Z,82.47
2022-10-31T01:09:46.572Z,76.50
2022-10-31T01:12:50.159Z,74.60
2022-10-31T01:15:56.826Z,66.70
2022-10-31T01:18:59.044Z,69.80
2022-10-31T01:22:01.208Z,76.20
2022-10-31T01:25:03.718Z,72.90
2022-10-31T01:28:07.842Z,65.90
2022-10-31T01:31:10.407Z,62.23
2022-10-31T01:34:16.408Z,54.67
2022-10-31T01:37:18.288Z,71.13
2022-10-31T01:40:20.443Z,54.20
2022-10-31T01:46:36.781Z,54.47
2022-10-31T01:49:46.986Z,59.40
2022-10-31T01:52:51.910Z,60.97
2022-10-31T01:55:54.007Z,67.00
2022-10-31T01:58:57.905Z,56.20
2022-10-31T02:01:59.950Z,68.83
2022-10-31T02:05:07.626Z,55.57
2022-10-31T02:08:15.536Z,54.53
2022-10-31T02:11:17.659Z,51.27
2022-10-31T02:14:22.104Z,54.87
2022-10-31T02:17:24.265Z,53.60
2022-10-31T02:20:33.066Z,54.70
2022-10-31T02:24:05.827Z,50.93
2022-10-31T02:27:10.522Z,58.03
2022-10-31T02:30:17.972Z,53.37
2022-10-31T02:33:31.713Z,50.17
2022-10-31T02:36:50.561Z,48.57
2022-10-31T02:40:03.164Z,60.23
2022-10-31T02:43:17.275Z,54.73
2022-10-31T02:46:40.555Z,60.40
2022-10-31T02:50:13.819Z,58.20
2022-10-31T02:53:16.734Z,52.47
2022-10-31T02:56:20.551Z,61.47
2022-10-31T02:59:23.284Z,55.70
2022-10-31T03:02:45.372Z,70.07
2022-10-31T03:06:29.936Z,62.27
2022-10-31T03:09:40.149Z,66.77
2022-10-31T03:12:49.305Z,70.83
2022-10-31T03:15:54.429Z,76.00
2022-10-31T03:19:02.579Z,59.67
2022-10-31T03:22:13.229Z,65.53
2022-10-31T03:25:15.521Z,57.27
2022-10-31T03:28:22.891Z,55.03
2022-10-31T03:31:30.453Z,54.00
2022-10-31T03:34:34.483Z,52.40
2022-10-31T03:37:39.305Z,48.77
2022-10-31T03:40:44.412Z,52.53
2022-10-31T03:43:55.485Z,46.33
2022-10-31T03:46:58.229Z,43.30
2022-10-31T03:50:00.620Z,50.37
2022-10-31T03:53:15.783Z,53.97
2022-10-31T03:56:23.702Z,46.77
2022-10-31T03:59:31.345Z,51.37
2022-10-31T04:02:37.037Z,47.87
2022-10-31T04:05:39.948Z,47.97
2022-10-31T04:08:59.761Z,53.47
2022-10-31T04:12:04.738Z,61.53
2022-10-31T04:15:08.935Z,48.50
2022-10-31T04:18:11.668Z,63.17
2022-10-31T04:21:13.722Z,44.60
2022-10-31T04:24:15.855Z,43.33
2022-10-31T04:27:17.741Z,43.67
2022-10-31T04:30:19.938Z,53.87
2022-10-31T04:33:21.927Z,43.43
2022-10-31T04:36:23.989Z,50.47
2022-10-31T04:39:26.870Z,53.63
2022-10-31T04:42:32.597Z,47.97
2022-10-31T04:45:34.466Z,37.83
2022-10-31T04:48:36.566Z,49.83
2022-10-31T04:51:38.567Z,45.30
2022-10-31T04:54:40.764Z,54.30
2022-10-31T04:57:47.931Z,45.77
2022-10-31T05:00:54.058Z,56.43
2022-10-31T05:03:56.051Z,49.47
2022-10-31T05:06:58.128Z,48.83
2022-10-31T05:09:59.983Z,53.73
2022-10-31T05:13:04.285Z,41.43
2022-10-31T05:16:06.828Z,50.03
2022-10-31T05:19:08.910Z,43.67
2022-10-31T05:22:10.827Z,44.67
2022-10-31T05:25:13.414Z,39.63
2022-10-31T05:28:15.407Z,42.97
2022-10-31T05:31:17.553Z,44.77
2022-10-31T05:34:19.486Z,42.53
2022-10-31T05:37:21.659Z,38.63
2022-10-31T05:40:23.679Z,39.83
2022-10-31T05:43:25.789Z,33.63
2022-10-31T05:46:27.683Z,37.17
2022-10-31T05:49:29.888Z,42.77
2022-10-31T05:52:32.013Z,50.97
2022-10-31T05:55:34.227Z,40.63
2022-10-31T05:58:36.165Z,46.43
2022-10-31T06:01:38.373Z,43.70
2022-10-31T06:04:40.357Z,40.17
2022-10-31T06:07:42.502Z,39.80
2022-10-31T06:10:44.932Z,50.30
2022-10-31T06:13:47.128Z,46.53
2022-10-31T06:16:49.047Z,53.07
2022-10-31T06:19:51.208Z,48.33
2022-10-31T06:22:53.219Z,46.30
2022-10-31T06:25:56.420Z,46.27
2022-10-31T06:29:02.996Z,47.77
2022-10-31T06:32:06.377Z,51.40
2022-10-31T06:35:08.473Z,48.93
2022-10-31T06:38:10.651Z,40.73
2022-10-31T06:41:12.621Z,40.90
2022-10-31T06:44:14.901Z,55.90
2022-10-31T06:47:16.802Z,36.63
2022-10-31T06:50:20.435Z,44.17
2022-10-31T06:53:22.340Z,36.00
2022-10-31T06:56:24.532Z,38.27
2022-10-31T06:59:26.389Z,37.23
2022-10-31T07:02:28.560Z,40.27
2022-10-31T07:05:31.241Z,35.37
2022-10-31T07:08:33.447Z,42.27
2022-10-31T07:11:35.385Z,38.03
2022-10-31T07:14:37.467Z,45.30
2022-10-31T07:17:39.314Z,37.43
2022-10-31T07:20:41.468Z,46.70
2022-10-31T07:23:43.348Z,35.73
2022-10-31T07:26:48.405Z,37.60
2022-10-31T07:29:50.301Z,50.40
2022-10-31T07:32:52.530Z,32.30
2022-10-31T07:35:54.693Z,38.83
2022-10-31T07:38:56.873Z,38.93
2022-10-31T07:41:59.964Z,38.60
2022-10-31T07:45:02.048Z,39.77
2022-10-31T07:48:04.290Z,41.17
2022-10-31T07:51:07.949Z,43.83
2022-10-31T07:54:09.820Z,42.50
2022-10-31T07:57:11.994Z,33.13
2022-10-31T08:00:14.066Z,32.57
2022-10-31T08:03:18.613Z,24.90
2022-10-31T08:06:20.724Z,24.13
2022-10-31T08:09:22.801Z,26.57
2022-10-31T08:12:24.837Z,31.05
2022-10-31T08:15:27.895Z,26.87
2022-10-31T08:18:30.210Z,24.63
2022-10-31T08:21:32.372Z,24.77
2022-10-31T08:24:34.288Z,26.15
2022-10-31T08:27:37.524Z,24.50
2022-10-31T08:30:41.725Z,27.77
2022-10-31T08:33:43.782Z,29.20
2022-10-31T08:36:47.152Z,29.77
2022-10-31T08:39:49.517Z,29.88
2022-10-31T08:42:58.563Z,31.27
2022-10-31T08:46:00.868Z,30.27
2022-10-31T08:49:03.033Z,32.67
2022-10-31T08:52:05.155Z,31.83
2022-10-31T08:55:07.490Z,25.40
2022-10-31T08:58:15.346Z,27.48
2022-10-31T09:01:17.469Z,23.63
2022-10-31T09:04:19.609Z,25.55
2022-10-31T09:07:21.847Z,20.30
2022-10-31T09:10:24.674Z,22.52
2022-10-31T09:13:28.292Z,20.77
2022-10-31T09:16:30.567Z,22.15
2022-10-31T09:19:32.451Z,25.10
2022-10-31T09:22:34.660Z,19.92
2022-10-31T09:25:36.930Z,22.90
2022-10-31T09:28:39.060Z,21.48
2022-10-31T09:31:44.727Z,25.10
2022-10-31T09:34:47.309Z,23.23
2022-10-31T09:37:57.963Z,23.70
2022-10-31T09:41:18.017Z,21.17
2022-10-31T09:45:06.192Z,21.88
2022-10-31T09:48:08.560Z,22.73
2022-10-31T09:51:16.329Z,28.02
2022-10-31T09:54:35.154Z,27.38
2022-10-31T09:57:38.054Z,24.13
2022-10-31T10:00:40.799Z,27.40
2022-10-31T10:03:48.131Z,26.80
2022-10-31T10:06:52.305Z,28.42
2022-10-31T10:09:54.622Z,28.35
2022-10-31T10:13:21.976Z,22.25
2022-10-31T10:16:39.368Z,26.98
2022-10-31T10:20:01.790Z,26.80
2022-10-31T10:23:23.445Z,22.23
2022-10-31T10:26:41.593Z,23.23
2022-10-31T10:30:02.452Z,23.90
2022-10-31T10:33:14.821Z,27.80
2022-10-31T10:36:28.725Z,25.10
2022-10-31T10:39:41.488Z,28.38
2022-10-31T10:43:10.267Z,28.90
2022-10-31T10:46:46.307Z,26.05
2022-10-31T10:49:52.817Z,32.03
2022-10-31T10:53:33.406Z,31.48
2022-10-31T10:57:01.730Z,26.58
2022-10-31T11:00:34.714Z,29.15
2022-10-31T11:03:37.008Z,28.90
2022-10-31T11:06:39.207Z,30.67
2022-10-31T11:09:41.387Z,28.05
2022-10-31T11:12:46.840Z,25.30
2022-10-31T11:16:14.561Z,23.70
2022-10-31T11:19:27.415Z,26.77
2022-10-31T11:22:29.410Z,27.58
2022-10-31T11:25:31.493Z,31.63
2022-10-31T11:28:37.814Z,27.15
2022-10-31T11:31:40.659Z,26.90
2022-10-31T11:34:47.477Z,28.98
2022-10-31T11:37:52.998Z,27.00
2022-10-31T11:40:56.843Z,28.63
2022-10-31T11:44:01.133Z,25.80
2022-10-31T11:47:06.504Z,20.17
2022-10-31T11:50:19.148Z,23.08
2022-10-31T11:53:28.320Z,22.95
2022-10-31T11:56:43.645Z,22.65
2022-10-31T11:59:53.409Z,23.70
2022-10-31T12:03:23.515Z,22.45
2022-10-31T12:06:32.590Z,29.25
2022-10-31T12:09:36.906Z,25.50
2022-10-31T12:13:04.008Z,24.77
2022-10-31T12:16:26.628Z,26.10
2022-10-31T12:19:33.609Z,23.52
2022-10-31T12:23:00.273Z,27.88
2022-10-31T12:26:17.378Z,23.27
2022-10-31T12:29:41.155Z,26.45
2022-10-31T12:33:01.493Z,23.65
2022-10-31T12:36:28.718Z,25.13
2022-10-31T12:40:04.216Z,24.08
2022-10-31T12:43:16.872Z,26.33
2022-10-31T12:46:59.922Z,25.17
2022-10-31T12:50:23.366Z,24.08
2022-10-31T12:53:59.416Z,22.60
2022-10-31T12:57:12.016Z,23.00
2022-10-31T13:00:18.035Z,22.83
2022-10-31T13:03:34.659Z,19.20
2022-10-31T13:06:44.724Z,18.52
2022-10-31T13:10:03.603Z,21.30
2022-10-31T13:13:27.703Z,22.25
2022-10-31T13:16:35.523Z,19.08
2022-10-31T13:19:41.986Z,20.38
2022-10-31T13:22:49.219Z,27.25
2022-10-31T13:25:55.740Z,19.20
2022-10-31T13:29:34.318Z,20.92
2022-10-31T13:32:59.846Z,28.73
2022-10-31T13:36:40.444Z,22.05
2022-10-31T13:39:47.969Z,23.02
2022-10-31T13:43:18.767Z,22.90
2022-10-31T13:49:48.601Z,22.25
2022-10-31T13:52:50.594Z,24.88
2022-10-31T13:56:24.866Z,18.58
2022-10-31T13:59:33.982Z,20.33
2022-10-31T14:02:37.736Z,20.48
2022-10-31T14:05:39.691Z,21.88
2022-10-31T14:08:51.841Z,25.30
2022-10-31T14:11:54.730Z,22.17
2022-10-31T14:15:18.692Z,25.20
2022-10-31T14:18:26.664Z,20.05
2022-10-31T14:21:32.074Z,28.23
2022-10-31T14:24:36.837Z,26.30
2022-10-31T14:27:47.348Z,22.88
2022-10-31T14:30:57.672Z,22.00
2022-10-31T14:34:02.413Z,25.15
2022-10-31T14:37:41.462Z,23.40
2022-10-31T14:41:19.695Z,26.60
2022-10-31T14:44:43.662Z,27.15
2022-10-31T14:48:20.972Z,25.35
2022-10-31T14:51:27.296Z,27.10
2022-10-31T14:54:35.133Z,25.35
2022-10-31T14:57:39.976Z,26.48
2022-10-31T15:00:44.560Z,27.95
2022-10-31T15:04:10.178Z,24.98
2022-10-31T15:07:23.474Z,22.58
2022-10-31T15:10:37.490Z,31.25
2022-10-31T15:13:46.099Z,40.78
2022-10-31T15:16:48.233Z,54.40
2022-10-31T15:19:51.020Z,38.58
2022-10-31T15:22:54.465Z,41.53
2022-10-31T15:26:01.288Z,49.40
2022-10-31T15:29:06.216Z,52.58
2022-10-31T15:32:22.196Z,49.33
2022-10-31T15:35:28.006Z,53.10
2022-10-31T15:38:30.777Z,45.80
2022-10-31T15:41:38.309Z,44.08
2022-10-31T15:44:43.037Z,38.35
2022-10-31T15:47:59.040Z,38.33
2022-10-31T15:51:03.301Z,39.80
2022-10-31T15:54:05.292Z,42.78
2022-10-31T15:57:12.507Z,48.08
2022-10-31T16:00:36.485Z,43.05
2022-10-31T16:03:38.620Z,34.28
2022-10-31T16:06:40.673Z,38.90
2022-10-31T16:09:56.936Z,32.30
2022-10-31T16:13:01.588Z,34.05
2022-10-31T16:19:51.512Z,35.33
2022-10-31T16:22:55.108Z,36.67
2022-10-31T16:25:57.099Z,36.30
2022-10-31T16:29:04.882Z,37.22
2022-10-31T16:32:32.914Z,52.38
2022-10-31T16:35:39.789Z,48.00
2022-10-31T16:38:42.031Z,40.67
2022-10-31T16:41:53.420Z,49.60
2022-10-31T16:44:55.432Z,48.63
2022-10-31T16:48:11.506Z,37.10
2022-10-31T16:51:13.523Z,43.38
2022-10-31T16:54:15.674Z,38.90
2022-10-31T16:57:27.281Z,40.38
2022-10-31T17:00:29.467Z,36.00
2022-10-31T17:03:31.418Z,42.88
2022-10-31T17:06:33.623Z,41.63
2022-10-31T17:09:35.494Z,41.03
2022-10-31T17:12:39.866Z,48.57
2022-10-31T17:15:46.013Z,42.60
2022-10-31T17:18:48.249Z,39.03
2022-10-31T17:21:50.220Z,46.25
2022-10-31T17:24:52.291Z,37.20
2022-10-31T17:27:54.597Z,32.53
2022-10-31T17:30:59.091Z,32.27
2022-10-31T17:34:02.661Z,41.27
2022-10-31T17:37:05.736Z,35.20
2022-10-31T17:40:08.083Z,41.53
2022-10-31T17:43:11.113Z,44.80
2022-10-31T17:46:13.185Z,58.57
2022-10-31T17:49:15.432Z,54.20
2022-10-31T17:52:17.388Z,55.63
2022-10-31T17:55:20.172Z,50.57
2022-10-31T17:58:22.029Z,45.60
2022-10-31T18:01:24.648Z,38.10
2022-10-31T18:04:26.936Z,49.57
2022-10-31T18:07:29.211Z,48.47
2022-10-31T18:10:31.392Z,32.17
2022-10-31T18:13:33.479Z,47.50
2022-10-31T18:19:38.471Z,51.37
2022-10-31T18:22:40.423Z,50.47
2022-10-31T18:25:43.502Z,52.27
2022-10-31T18:28:45.367Z,56.17
2022-10-31T18:31:52.836Z,64.68
2022-10-31T18:34:54.738Z,61.72
2022-10-31T18:37:59.275Z,67.22
2022-10-31T18:41:04.377Z,55.60
2022-10-31T18:44:07.974Z,89.22
2022-10-31T18:47:09.878Z,57.70
2022-10-31T18:50:12.460Z,67.90
2022-10-31T18:53:14.424Z,49.53
2022-10-31T18:56:16.720Z,52.92
2022-10-31T18:59:18.689Z,80.07
2022-10-31T19:02:20.860Z,40.53
2022-10-31T19:05:23.022Z,30.57
2022-10-31T19:08:25.233Z,37.90
2022-10-31T19:11:28.078Z,33.40
2022-10-31T19:14:30.200Z,47.00
2022-10-31T19:17:32.471Z,30.38
2022-10-31T19:20:34.621Z,26.67
2022-10-31T19:23:36.975Z,29.93
2022-10-31T19:26:39.133Z,26.83
2022-10-31T19:29:42.278Z,29.30
2022-10-31T19:32:44.476Z,33.40
2022-10-31T19:35:46.417Z,29.52
2022-10-31T19:38:50.575Z,34.97
2022-10-31T19:41:52.478Z,43.00
2022-10-31T19:44:54.642Z,36.23
2022-10-31T19:47:56.644Z,42.95
2022-10-31T19:51:06.896Z,51.13
2022-10-31T19:54:08.863Z,29.17
2022-10-31T19:57:11.242Z,26.92
2022-10-31T20:00:13.866Z,41.63
2022-10-31T20:03:19.840Z,37.53
2022-10-31T20:06:28.209Z,55.60
2022-10-31T20:09:30.562Z,50.97
2022-10-31T20:12:33.758Z,48.40
2022-10-31T20:15:35.935Z,51.43
2022-10-31T20:18:39.264Z,47.97
2022-10-31T20:21:41.867Z,60.57
2022-10-31T20:24:43.751Z,40.97
2022-10-31T20:27:45.935Z,44.53
2022-10-31T20:30:47.840Z,59.23
2022-10-31T20:33:50.840Z,53.33
2022-10-31T20:36:52.889Z,38.53
2022-10-31T20:39:56.592Z,41.87
2022-10-31T20:42:59.159Z,45.75
2022-10-31T20:46:06.457Z,25.17
2022-10-31T20:49:08.605Z,31.53
2022-10-31T20:52:10.749Z,39.43
2022-10-31T20:55:12.714Z,33.60
2022-10-31T20:58:14.863Z,38.08
2022-10-31T21:01:20.491Z,34.70
2022-10-31T21:04:22.971Z,37.17
2022-10-31T21:07:24.898Z,32.33
2022-10-31T21:10:26.968Z,27.67
2022-10-31T21:13:29.786Z,34.20
2022-10-31T21:16:35.799Z,31.33
2022-10-31T21:19:37.718Z,24.30
2022-10-31T21:22:40.303Z,35.05
2022-10-31T21:25:43.108Z,34.30
2022-10-31T21:28:45.197Z,40.10
2022-10-31T21:31:48.028Z,29.07
2022-10-31T21:34:50.365Z,25.67
2022-10-31T21:37:52.288Z,39.73
2022-10-31T21:41:02.282Z,22.00
2022-10-31T21:44:04.454Z,34.83
2022-10-31T21:47:06.540Z,41.77
2022-10-31T21:50:09.719Z,32.22
2022-10-31T21:53:30.699Z,23.42
2022-10-31T21:56:33.024Z,27.40
2022-10-31T21:59:35.137Z,32.25
2022-10-31T22:02:37.429Z,42.03
2022-10-31T22:05:39.672Z,32.67
2022-10-31T22:08:41.929Z,33.37
2022-10-31T22:11:44.094Z,30.52
2022-10-31T22:14:45.967Z,40.80
2022-10-31T22:17:48.513Z,36.50
2022-10-31T22:20:50.363Z,31.83
2022-10-31T22:23:54.731Z,35.57
2022-10-31T22:26:56.600Z,39.45
2022-10-31T22:29:58.877Z,31.73
2022-10-31T22:33:01.246Z,20.70
2022-10-31T22:36:05.709Z,24.00
2022-10-31T22:39:09.623Z,37.30
2022-10-31T22:42:11.694Z,30.77
2022-10-31T22:45:13.660Z,36.07
2022-10-31T22:48:15.739Z,30.30
2022-10-31T22:51:20.405Z,33.67
2022-10-31T22:54:22.511Z,35.25
2022-10-31T22:57:24.416Z,34.80
2022-10-31T23:00:26.555Z,34.60
2022-10-31T23:03:28.457Z,33.23
2022-10-31T23:06:31.894Z,40.73
2022-10-31T23:09:33.815Z,28.00
2022-10-31T23:12:54.754Z,30.67
2022-10-31T23:15:56.628Z,33.77
2022-10-31T23:18:58.901Z,30.97
2022-10-31T23:22:04.075Z,36.53
2022-10-31T23:25:06.553Z,31.43
2022-10-31T23:28:08.443Z,34.55
2022-10-31T23:31:10.575Z,35.67
2022-10-31T23:34:12.467Z,36.07
2022-10-31T23:37:15.663Z,33.67
2022-10-31T23:40:17.770Z,23.73
2022-10-31T23:43:19.878Z,27.10
2022-10-31T23:46:21.809Z,38.22
2022-10-31T23:49:24.019Z,29.83
2022-10-31T23:52:25.894Z,31.38
2022-10-31T23:55:28.052Z,24.90
2022-10-31T23:58:29.987Z,35.87
